sensor_id;sensor_type;location;lat;lon;timestamp;temperature;humidity
29207;DHT22;16247;50.840;4.382;2022-08-11T00:00:39;24.90;98.90
29207;DHT22;16247;50.840;4.382;2022-08-11T00:03:10;24.90;99.00
29207;DHT22;16247;50.840;4.382;2022-08-11T00:05:50;24.90;99.00
29207;DHT22;16247;50.840;4.382;2022-08-11T00:08:23;24.90;99.00
29207;DHT22;16247;50.840;4.382;2022-08-11T00:10:55;24.70;99.10
29207;DHT22;16247;50.840;4.382;2022-08-11T00:13:22;24.80;99.10
29207;DHT22;16247;50.840;4.382;2022-08-11T00:15:55;24.80;99.10
29207;DHT22;16247;50.840;4.382;2022-08-11T00:18:21;24.60;99.30
29207;DHT22;16247;50.840;4.382;2022-08-11T00:20:47;24.60;99.50
29207;DHT22;16247;50.840;4.382;2022-08-11T00:23:15;24.50;99.70
29207;DHT22;16247;50.840;4.382;2022-08-11T00:25:46;24.40;99.80
29207;DHT22;16247;50.840;4.382;2022-08-11T00:28:30;24.30;99.90
29207;DHT22;16247;50.840;4.382;2022-08-11T00:31:02;24.40;99.90
29207;DHT22;16247;50.840;4.382;2022-08-11T00:33:48;24.30;99.90
29207;DHT22;16247;50.840;4.382;2022-08-11T00:36:16;24.30;99.90
29207;DHT22;16247;50.840;4.382;2022-08-11T00:38:44;24.30;99.90
29207;DHT22;16247;50.840;4.382;2022-08-11T00:41:40;24.30;99.90
29207;DHT22;16247;50.840;4.382;2022-08-11T00:47:13;24.30;99.90
29207;DHT22;16247;50.840;4.382;2022-08-11T01:15:31;24.10;99.90
29207;DHT22;16247;50.840;4.382;2022-08-11T01:20:46;23.90;99.90
29207;DHT22;16247;50.840;4.382;2022-08-11T01:29:14;23.70;99.90
29207;DHT22;16247;50.840;4.382;2022-08-11T01:40:13;23.60;99.90
29207;DHT22;16247;50.840;4.382;2022-08-11T01:48:47;23.60;99.90
29207;DHT22;16247;50.840;4.382;2022-08-11T01:59:25;23.50;99.90
29207;DHT22;16247;50.840;4.382;2022-08-11T02:04:58;23.40;99.90
29207;DHT22;16247;50.840;4.382;2022-08-11T02:07:35;23.40;99.90
29207;DHT22;16247;50.840;4.382;2022-08-11T02:10:30;23.30;99.90
29207;DHT22;16247;50.840;4.382;2022-08-11T02:13:39;23.20;99.90
29207;DHT22;16247;50.840;4.382;2022-08-11T02:22:07;22.90;99.90
29207;DHT22;16247;50.840;4.382;2022-08-11T02:25:10;22.90;99.90
29207;DHT22;16247;50.840;4.382;2022-08-11T02:27:54;22.90;99.90
29207;DHT22;16247;50.840;4.382;2022-08-11T02:30:24;22.90;99.90
29207;DHT22;16247;50.840;4.382;2022-08-11T02:36:03;22.90;99.90
29207;DHT22;16247;50.840;4.382;2022-08-11T02:38:39;22.70;99.90
29207;DHT22;16247;50.840;4.382;2022-08-11T02:44:48;22.70;99.90
29207;DHT22;16247;50.840;4.382;2022-08-11T02:50:22;22.70;99.90
29207;DHT22;16247;50.840;4.382;2022-08-11T02:55:36;22.70;99.90
29207;DHT22;16247;50.840;4.382;2022-08-11T02:58:15;22.60;99.90
29207;DHT22;16247;50.840;4.382;2022-08-11T03:00:52;22.70;99.90
29207;DHT22;16247;50.840;4.382;2022-08-11T03:03:29;22.80;99.90
29207;DHT22;16247;50.840;4.382;2022-08-11T03:06:49;22.70;99.90
29207;DHT22;16247;50.840;4.382;2022-08-11T03:12:08;22.60;99.90
29207;DHT22;16247;50.840;4.382;2022-08-11T03:18:46;22.50;99.90
29207;DHT22;16247;50.840;4.382;2022-08-11T03:21:36;22.50;99.90
29207;DHT22;16247;50.840;4.382;2022-08-11T03:27:06;22.30;99.90
29207;DHT22;16247;50.840;4.382;2022-08-11T03:32:27;22.10;99.90
29207;DHT22;16247;50.840;4.382;2022-08-11T03:34:56;22.10;99.90
29207;DHT22;16247;50.840;4.382;2022-08-11T03:37:47;22.20;99.90
29207;DHT22;16247;50.840;4.382;2022-08-11T03:46:13;22.30;99.90
29207;DHT22;16247;50.840;4.382;2022-08-11T03:48:58;22.10;99.90
29207;DHT22;16247;50.840;4.382;2022-08-11T03:51:29;22.10;99.90
29207;DHT22;16247;50.840;4.382;2022-08-11T03:54:13;22.10;99.90
29207;DHT22;16247;50.840;4.382;2022-08-11T04:21:49;22.10;99.90
29207;DHT22;16247;50.840;4.382;2022-08-11T04:29:51;22.10;99.90
29207;DHT22;16247;50.840;4.382;2022-08-11T04:44:15;21.90;99.90
29207;DHT22;16247;50.840;4.382;2022-08-11T04:46:58;21.70;99.90
29207;DHT22;16247;50.840;4.382;2022-08-11T04:55:44;21.90;99.90
29207;DHT22;16247;50.840;4.382;2022-08-11T05:01:39;21.70;99.90
29207;DHT22;16247;50.840;4.382;2022-08-11T05:08:09;21.80;99.90
29207;DHT22;16247;50.840;4.382;2022-08-11T05:13:45;21.80;99.90
29207;DHT22;16247;50.840;4.382;2022-08-11T05:16:40;21.90;99.90
29207;DHT22;16247;50.840;4.382;2022-08-11T05:19:25;21.90;99.90
29207;DHT22;16247;50.840;4.382;2022-08-11T05:22:11;22.10;99.90
29207;DHT22;16247;50.840;4.382;2022-08-11T05:25:10;21.80;99.90
29207;DHT22;16247;50.840;4.382;2022-08-11T05:28:15;21.80;99.90
29207;DHT22;16247;50.840;4.382;2022-08-11T05:31:09;21.70;99.90
29207;DHT22;16247;50.840;4.382;2022-08-11T05:34:02;21.80;99.90
29207;DHT22;16247;50.840;4.382;2022-08-11T05:36:53;21.80;99.90
29207;DHT22;16247;50.840;4.382;2022-08-11T05:39:27;21.80;99.90
29207;DHT22;16247;50.840;4.382;2022-08-11T05:42:16;21.90;99.90
29207;DHT22;16247;50.840;4.382;2022-08-11T05:45:04;21.80;99.90
29207;DHT22;16247;50.840;4.382;2022-08-11T05:47:53;21.70;99.90
29207;DHT22;16247;50.840;4.382;2022-08-11T05:50:38;21.80;99.90
29207;DHT22;16247;50.840;4.382;2022-08-11T05:53:23;21.90;99.90
29207;DHT22;16247;50.840;4.382;2022-08-11T05:56:08;21.80;99.90
29207;DHT22;16247;50.840;4.382;2022-08-11T05:58:52;21.80;99.90
29207;DHT22;16247;50.840;4.382;2022-08-11T06:01:28;21.80;99.90
29207;DHT22;16247;50.840;4.382;2022-08-11T06:04:02;21.80;99.90
29207;DHT22;16247;50.840;4.382;2022-08-11T06:07:01;21.90;99.90
29207;DHT22;16247;50.840;4.382;2022-08-11T06:09:34;22.00;99.90
29207;DHT22;16247;50.840;4.382;2022-08-11T06:12:15;21.90;99.90
29207;DHT22;16247;50.840;4.382;2022-08-11T06:14:42;21.90;99.90
29207;DHT22;16247;50.840;4.382;2022-08-11T06:17:09;22.10;99.90
29207;DHT22;16247;50.840;4.382;2022-08-11T06:19:46;22.20;99.90
29207;DHT22;16247;50.840;4.382;2022-08-11T06:22:12;22.40;99.90
29207;DHT22;16247;50.840;4.382;2022-08-11T06:24:52;22.60;99.90
29207;DHT22;16247;50.840;4.382;2022-08-11T06:27:21;22.70;99.90
29207;DHT22;16247;50.840;4.382;2022-08-11T06:29:49;22.90;99.90
29207;DHT22;16247;50.840;4.382;2022-08-11T06:32:17;22.90;99.90
29207;DHT22;16247;50.840;4.382;2022-08-11T06:34:52;22.90;99.90
29207;DHT22;16247;50.840;4.382;2022-08-11T06:37:43;23.00;99.90
29207;DHT22;16247;50.840;4.382;2022-08-11T06:43:24;23.30;99.90
29207;DHT22;16247;50.840;4.382;2022-08-11T06:46:02;23.30;99.90
29207;DHT22;16247;50.840;4.382;2022-08-11T06:48:33;23.30;99.90
29207;DHT22;16247;50.840;4.382;2022-08-11T06:51:07;23.20;99.90
29207;DHT22;16247;50.840;4.382;2022-08-11T06:53:44;23.30;99.90
29207;DHT22;16247;50.840;4.382;2022-08-11T06:56:12;23.30;99.90
29207;DHT22;16247;50.840;4.382;2022-08-11T06:58:59;23.20;99.90
29207;DHT22;16247;50.840;4.382;2022-08-11T07:11:00;23.40;99.90
29207;DHT22;16247;50.840;4.382;2022-08-11T07:13:51;23.80;99.90
29207;DHT22;16247;50.840;4.382;2022-08-11T07:16:38;23.90;99.90
29207;DHT22;16247;50.840;4.382;2022-08-11T07:19:06;23.90;99.90
29207;DHT22;16247;50.840;4.382;2022-08-11T07:21:54;23.90;99.90
29207;DHT22;16247;50.840;4.382;2022-08-11T07:24:40;24.00;99.90
29207;DHT22;16247;50.840;4.382;2022-08-11T07:27:29;24.00;99.90
29207;DHT22;16247;50.840;4.382;2022-08-11T07:30:16;24.10;99.90
29207;DHT22;16247;50.840;4.382;2022-08-11T07:32:52;24.20;99.90
29207;DHT22;16247;50.840;4.382;2022-08-11T07:35:34;24.30;99.90
29207;DHT22;16247;50.840;4.382;2022-08-11T07:38:22;24.40;99.90
29207;DHT22;16247;50.840;4.382;2022-08-11T07:40:49;24.50;99.90
29207;DHT22;16247;50.840;4.382;2022-08-11T07:43:15;24.60;99.90
29207;DHT22;16247;50.840;4.382;2022-08-11T07:45:45;24.60;99.90
29207;DHT22;16247;50.840;4.382;2022-08-11T07:48:32;24.90;99.90
29207;DHT22;16247;50.840;4.382;2022-08-11T07:51:20;25.10;99.90
29207;DHT22;16247;50.840;4.382;2022-08-11T07:54:06;25.20;99.90
29207;DHT22;16247;50.840;4.382;2022-08-11T07:56:34;25.20;99.90
29207;DHT22;16247;50.840;4.382;2022-08-11T07:59:02;25.30;99.90
29207;DHT22;16247;50.840;4.382;2022-08-11T08:01:47;25.40;99.90
29207;DHT22;16247;50.840;4.382;2022-08-11T08:04:32;25.50;99.90
29207;DHT22;16247;50.840;4.382;2022-08-11T08:07:20;25.70;99.90
29207;DHT22;16247;50.840;4.382;2022-08-11T08:10:08;25.80;99.90
29207;DHT22;16247;50.840;4.382;2022-08-11T08:12:53;25.90;99.90
29207;DHT22;16247;50.840;4.382;2022-08-11T08:15:38;26.10;99.90
29207;DHT22;16247;50.840;4.382;2022-08-11T08:18:23;26.30;99.90
29207;DHT22;16247;50.840;4.382;2022-08-11T08:20:50;26.30;99.90
29207;DHT22;16247;50.840;4.382;2022-08-11T08:23:22;26.30;99.90
29207;DHT22;16247;50.840;4.382;2022-08-11T08:26:04;26.40;99.90
29207;DHT22;16247;50.840;4.382;2022-08-11T08:28:51;26.60;99.90
29207;DHT22;16247;50.840;4.382;2022-08-11T08:31:17;26.70;99.90
29207;DHT22;16247;50.840;4.382;2022-08-11T08:33:43;26.80;99.90
29207;DHT22;16247;50.840;4.382;2022-08-11T08:36:10;26.90;99.90
29207;DHT22;16247;50.840;4.382;2022-08-11T08:38:57;27.00;99.90
29207;DHT22;16247;50.840;4.382;2022-08-11T08:41:27;27.20;99.60
29207;DHT22;16247;50.840;4.382;2022-08-11T08:44:00;27.40;99.20
29207;DHT22;16247;50.840;4.382;2022-08-11T08:46:34;27.40;98.90
29207;DHT22;16247;50.840;4.382;2022-08-11T08:49:02;27.70;98.60
29207;DHT22;16247;50.840;4.382;2022-08-11T08:51:29;27.70;97.70
29207;DHT22;16247;50.840;4.382;2022-08-11T08:54:09;27.80;97.10
29207;DHT22;16247;50.840;4.382;2022-08-11T08:56:39;27.90;96.70
29207;DHT22;16247;50.840;4.382;2022-08-11T08:59:05;28.10;96.60
29207;DHT22;16247;50.840;4.382;2022-08-11T09:01:56;28.20;96.10
29207;DHT22;16247;50.840;4.382;2022-08-11T09:04:22;28.10;96.10
29207;DHT22;16247;50.840;4.382;2022-08-11T09:06:49;28.30;96.20
29207;DHT22;16247;50.840;4.382;2022-08-11T09:09:15;28.40;95.90
29207;DHT22;16247;50.840;4.382;2022-08-11T09:11:42;28.40;95.60
29207;DHT22;16247;50.840;4.382;2022-08-11T09:14:22;28.40;95.20
29207;DHT22;16247;50.840;4.382;2022-08-11T09:16:49;28.50;95.10
29207;DHT22;16247;50.840;4.382;2022-08-11T09:19:18;28.60;95.10
29207;DHT22;16247;50.840;4.382;2022-08-11T09:21:47;28.70;94.90
29207;DHT22;16247;50.840;4.382;2022-08-11T09:24:33;28.80;94.80
29207;DHT22;16247;50.840;4.382;2022-08-11T09:27:19;29.10;94.60
29207;DHT22;16247;50.840;4.382;2022-08-11T09:29:45;29.10;94.80
29207;DHT22;16247;50.840;4.382;2022-08-11T09:32:11;29.20;94.70
29207;DHT22;16247;50.840;4.382;2022-08-11T09:34:40;29.40;94.00
29207;DHT22;16247;50.840;4.382;2022-08-11T09:37:08;29.50;93.80
29207;DHT22;16247;50.840;4.382;2022-08-11T09:39:53;29.40;94.00
29207;DHT22;16247;50.840;4.382;2022-08-11T09:42:53;29.40;93.80
29207;DHT22;16247;50.840;4.382;2022-08-11T09:45:37;29.40;94.00
29207;DHT22;16247;50.840;4.382;2022-08-11T09:48:04;29.50;93.50
29207;DHT22;16247;50.840;4.382;2022-08-11T09:50:34;29.70;93.20
29207;DHT22;16247;50.840;4.382;2022-08-11T09:53:03;29.90;92.80
29207;DHT22;16247;50.840;4.382;2022-08-11T09:55:31;29.90;92.60
29207;DHT22;16247;50.840;4.382;2022-08-11T09:57:57;30.10;92.50
29207;DHT22;16247;50.840;4.382;2022-08-11T10:00:45;30.00;92.30
29207;DHT22;16247;50.840;4.382;2022-08-11T10:03:20;30.00;92.20
29207;DHT22;16247;50.840;4.382;2022-08-11T10:05:58;30.10;92.30
29207;DHT22;16247;50.840;4.382;2022-08-11T10:08:43;30.00;92.20
29207;DHT22;16247;50.840;4.382;2022-08-11T10:11:12;29.90;92.10
29207;DHT22;16247;50.840;4.382;2022-08-11T10:13:44;29.90;92.20
29207;DHT22;16247;50.840;4.382;2022-08-11T10:16:33;29.90;91.90
29207;DHT22;16247;50.840;4.382;2022-08-11T10:19:02;30.10;92.00
29207;DHT22;16247;50.840;4.382;2022-08-11T10:24:05;30.10;91.40
29207;DHT22;16247;50.840;4.382;2022-08-11T10:26:53;30.20;91.60
29207;DHT22;16247;50.840;4.382;2022-08-11T10:32:12;30.40;91.70
29207;DHT22;16247;50.840;4.382;2022-08-11T10:34:58;30.40;91.70
29207;DHT22;16247;50.840;4.382;2022-08-11T10:37:25;30.40;91.60
29207;DHT22;16247;50.840;4.382;2022-08-11T10:39:52;30.40;91.30
29207;DHT22;16247;50.840;4.382;2022-08-11T10:42:18;30.40;91.40
29207;DHT22;16247;50.840;4.382;2022-08-11T10:45:04;30.50;91.50
29207;DHT22;16247;50.840;4.382;2022-08-11T10:47:56;30.50;91.60
29207;DHT22;16247;50.840;4.382;2022-08-11T10:50:23;30.40;91.70
29207;DHT22;16247;50.840;4.382;2022-08-11T10:53:08;30.50;91.30
29207;DHT22;16247;50.840;4.382;2022-08-11T10:55:55;30.60;91.30
29207;DHT22;16247;50.840;4.382;2022-08-11T10:58:40;30.70;91.40
29207;DHT22;16247;50.840;4.382;2022-08-11T11:01:32;31.10;90.50
29207;DHT22;16247;50.840;4.382;2022-08-11T11:04:15;31.30;90.30
29207;DHT22;16247;50.840;4.382;2022-08-11T11:07:06;31.20;90.10
29207;DHT22;16247;50.840;4.382;2022-08-11T11:09:45;31.40;90.20
29207;DHT22;16247;50.840;4.382;2022-08-11T11:12:30;31.50;89.70
29207;DHT22;16247;50.840;4.382;2022-08-11T11:15:18;31.60;89.40
29207;DHT22;16247;50.840;4.382;2022-08-11T11:18:09;31.70;89.10
29207;DHT22;16247;50.840;4.382;2022-08-11T11:20:56;31.70;88.50
29207;DHT22;16247;50.840;4.382;2022-08-11T11:23:42;31.70;88.10
29207;DHT22;16247;50.840;4.382;2022-08-11T11:29:18;31.70;86.80
29207;DHT22;16247;50.840;4.382;2022-08-11T11:31:55;31.80;86.40
29207;DHT22;16247;50.840;4.382;2022-08-11T11:37:41;31.80;86.10
29207;DHT22;16247;50.840;4.382;2022-08-11T11:40:15;31.90;85.60
29207;DHT22;16247;50.840;4.382;2022-08-11T11:42:43;32.20;84.40
29207;DHT22;16247;50.840;4.382;2022-08-11T11:45:11;32.00;84.00
29207;DHT22;16247;50.840;4.382;2022-08-11T11:47:39;31.90;84.30
29207;DHT22;16247;50.840;4.382;2022-08-11T11:50:06;31.80;84.30
29207;DHT22;16247;50.840;4.382;2022-08-11T11:52:33;32.00;83.30
29207;DHT22;16247;50.840;4.382;2022-08-11T11:54:59;32.20;82.90
29207;DHT22;16247;50.840;4.382;2022-08-11T11:57:27;32.10;83.00
29207;DHT22;16247;50.840;4.382;2022-08-11T12:00:12;32.20;82.60
29207;DHT22;16247;50.840;4.382;2022-08-11T12:02:58;32.20;82.30
29207;DHT22;16247;50.840;4.382;2022-08-11T12:05:25;32.30;81.30
29207;DHT22;16247;50.840;4.382;2022-08-11T12:07:53;32.30;81.90
29207;DHT22;16247;50.840;4.382;2022-08-11T12:10:56;32.40;81.40
29207;DHT22;16247;50.840;4.382;2022-08-11T12:13:43;32.50;80.60
29207;DHT22;16247;50.840;4.382;2022-08-11T12:16:11;32.60;80.10
29207;DHT22;16247;50.840;4.382;2022-08-11T12:18:40;32.50;80.30
29207;DHT22;16247;50.840;4.382;2022-08-11T12:21:07;32.40;80.50
29207;DHT22;16247;50.840;4.382;2022-08-11T12:23:35;32.40;80.80
29207;DHT22;16247;50.840;4.382;2022-08-11T12:26:20;32.40;81.10
29207;DHT22;16247;50.840;4.382;2022-08-11T12:29:08;32.60;81.40
29207;DHT22;16247;50.840;4.382;2022-08-11T12:31:37;32.70;80.50
29207;DHT22;16247;50.840;4.382;2022-08-11T12:34:07;32.80;80.00
29207;DHT22;16247;50.840;4.382;2022-08-11T12:36:36;32.90;78.90
29207;DHT22;16247;50.840;4.382;2022-08-11T12:39:05;32.90;78.80
29207;DHT22;16247;50.840;4.382;2022-08-11T12:41:32;32.90;78.30
29207;DHT22;16247;50.840;4.382;2022-08-11T12:44:18;32.90;77.90
29207;DHT22;16247;50.840;4.382;2022-08-11T12:47:04;32.80;78.40
29207;DHT22;16247;50.840;4.382;2022-08-11T12:49:37;33.00;78.50
29207;DHT22;16247;50.840;4.382;2022-08-11T12:52:26;33.10;79.00
29207;DHT22;16247;50.840;4.382;2022-08-11T12:55:20;33.00;77.90
29207;DHT22;16247;50.840;4.382;2022-08-11T12:58:08;32.80;77.70
29207;DHT22;16247;50.840;4.382;2022-08-11T13:00:45;32.70;77.00
29207;DHT22;16247;50.840;4.382;2022-08-11T13:03:32;32.70;76.70
29207;DHT22;16247;50.840;4.382;2022-08-11T13:06:18;32.70;76.80
29207;DHT22;16247;50.840;4.382;2022-08-11T13:08:45;32.70;76.10
29207;DHT22;16247;50.840;4.382;2022-08-11T13:11:11;32.70;76.40
29207;DHT22;16247;50.840;4.382;2022-08-11T13:13:58;32.90;75.90
29207;DHT22;16247;50.840;4.382;2022-08-11T13:16:31;33.00;75.90
29207;DHT22;16247;50.840;4.382;2022-08-11T13:19:18;33.00;74.90
29207;DHT22;16247;50.840;4.382;2022-08-11T13:21:45;32.90;74.90
29207;DHT22;16247;50.840;4.382;2022-08-11T13:24:11;32.90;75.20
29207;DHT22;16247;50.840;4.382;2022-08-11T13:26:37;32.90;76.00
29207;DHT22;16247;50.840;4.382;2022-08-11T13:29:03;32.90;76.40
29207;DHT22;16247;50.840;4.382;2022-08-11T13:31:29;33.00;76.00
29207;DHT22;16247;50.840;4.382;2022-08-11T13:33:57;33.10;75.70
29207;DHT22;16247;50.840;4.382;2022-08-11T13:36:23;33.00;75.50
29207;DHT22;16247;50.840;4.382;2022-08-11T13:38:54;33.20;75.70
29207;DHT22;16247;50.840;4.382;2022-08-11T13:41:20;33.10;75.50
29207;DHT22;16247;50.840;4.382;2022-08-11T13:44:05;33.20;75.80
29207;DHT22;16247;50.840;4.382;2022-08-11T13:46:32;33.30;75.70
29207;DHT22;16247;50.840;4.382;2022-08-11T13:48:59;33.40;74.80
29207;DHT22;16247;50.840;4.382;2022-08-11T13:51:25;33.50;75.40
29207;DHT22;16247;50.840;4.382;2022-08-11T13:54:06;33.50;74.60
29207;DHT22;16247;50.840;4.382;2022-08-11T13:56:36;33.30;75.10
29207;DHT22;16247;50.840;4.382;2022-08-11T13:59:07;33.40;75.50
29207;DHT22;16247;50.840;4.382;2022-08-11T14:01:33;33.40;75.10
29207;DHT22;16247;50.840;4.382;2022-08-11T14:04:35;33.30;75.00
29207;DHT22;16247;50.840;4.382;2022-08-11T14:07:06;33.40;75.10
29207;DHT22;16247;50.840;4.382;2022-08-11T14:09:36;33.40;75.50
29207;DHT22;16247;50.840;4.382;2022-08-11T14:12:06;33.50;75.50
29207;DHT22;16247;50.840;4.382;2022-08-11T14:15:05;33.60;75.50
29207;DHT22;16247;50.840;4.382;2022-08-11T14:17:32;33.50;75.10
29207;DHT22;16247;50.840;4.382;2022-08-11T14:20:04;33.50;74.90
29207;DHT22;16247;50.840;4.382;2022-08-11T14:22:31;33.40;75.20
29207;DHT22;16247;50.840;4.382;2022-08-11T14:24:57;33.30;75.50
29207;DHT22;16247;50.840;4.382;2022-08-11T14:27:24;33.20;74.90
29207;DHT22;16247;50.840;4.382;2022-08-11T14:29:56;33.30;75.00
29207;DHT22;16247;50.840;4.382;2022-08-11T14:32:22;33.40;74.10
29207;DHT22;16247;50.840;4.382;2022-08-11T14:34:49;33.50;74.20
29207;DHT22;16247;50.840;4.382;2022-08-11T14:37:20;33.40;74.20
29207;DHT22;16247;50.840;4.382;2022-08-11T14:39:57;33.30;74.20
29207;DHT22;16247;50.840;4.382;2022-08-11T14:42:24;33.10;74.10
29207;DHT22;16247;50.840;4.382;2022-08-11T14:45:11;33.10;74.50
29207;DHT22;16247;50.840;4.382;2022-08-11T14:48:03;33.30;74.20
29207;DHT22;16247;50.840;4.382;2022-08-11T14:50:31;33.40;73.70
29207;DHT22;16247;50.840;4.382;2022-08-11T14:55:31;33.40;72.70
29207;DHT22;16247;50.840;4.382;2022-08-11T14:58:20;33.40;72.80
29207;DHT22;16247;50.840;4.382;2022-08-11T15:00:48;33.50;71.70
29207;DHT22;16247;50.840;4.382;2022-08-11T15:03:14;33.60;72.30
29207;DHT22;16247;50.840;4.382;2022-08-11T15:08:14;33.50;72.90
29207;DHT22;16247;50.840;4.382;2022-08-11T15:10:41;33.60;73.60
29207;DHT22;16247;50.840;4.382;2022-08-11T15:13:07;33.50;73.10
29207;DHT22;16247;50.840;4.382;2022-08-11T15:15:34;33.50;74.10
29207;DHT22;16247;50.840;4.382;2022-08-11T15:18:21;33.50;73.20
29207;DHT22;16247;50.840;4.382;2022-08-11T15:20:50;33.60;73.30
29207;DHT22;16247;50.840;4.382;2022-08-11T15:23:34;33.50;73.40
29207;DHT22;16247;50.840;4.382;2022-08-11T15:26:24;33.40;73.40
29207;DHT22;16247;50.840;4.382;2022-08-11T15:29:14;33.40;73.20
29207;DHT22;16247;50.840;4.382;2022-08-11T15:32:02;33.40;73.50
29207;DHT22;16247;50.840;4.382;2022-08-11T15:34:48;33.30;73.00
29207;DHT22;16247;50.840;4.382;2022-08-11T15:37:33;33.40;73.10
29207;DHT22;16247;50.840;4.382;2022-08-11T15:43:15;33.60;72.70
29207;DHT22;16247;50.840;4.382;2022-08-11T15:46:07;33.70;72.10
29207;DHT22;16247;50.840;4.382;2022-08-11T15:48:42;33.80;72.50
29207;DHT22;16247;50.840;4.382;2022-08-11T15:51:11;33.70;72.40
29207;DHT22;16247;50.840;4.382;2022-08-11T15:53:41;33.80;72.90
29207;DHT22;16247;50.840;4.382;2022-08-11T15:56:09;33.70;72.80
29207;DHT22;16247;50.840;4.382;2022-08-11T15:58:40;33.70;72.40
29207;DHT22;16247;50.840;4.382;2022-08-11T16:01:26;33.70;72.30
29207;DHT22;16247;50.840;4.382;2022-08-11T16:04:23;33.80;72.50
29207;DHT22;16247;50.840;4.382;2022-08-11T16:07:09;33.40;72.10
29207;DHT22;16247;50.840;4.382;2022-08-11T16:09:41;33.50;72.10
29207;DHT22;16247;50.840;4.382;2022-08-11T16:12:17;33.20;71.50
29207;DHT22;16247;50.840;4.382;2022-08-11T16:14:48;33.40;71.50
29207;DHT22;16247;50.840;4.382;2022-08-11T16:17:39;33.50;70.50
29207;DHT22;16247;50.840;4.382;2022-08-11T16:20:07;33.50;69.70
29207;DHT22;16247;50.840;4.382;2022-08-11T16:22:34;33.50;69.80
29207;DHT22;16247;50.840;4.382;2022-08-11T16:25:16;33.50;69.20
29207;DHT22;16247;50.840;4.382;2022-08-11T16:27:45;33.60;69.40
29207;DHT22;16247;50.840;4.382;2022-08-11T16:30:12;33.70;68.80
29207;DHT22;16247;50.840;4.382;2022-08-11T16:32:43;33.70;68.70
29207;DHT22;16247;50.840;4.382;2022-08-11T16:35:15;33.50;67.70
29207;DHT22;16247;50.840;4.382;2022-08-11T16:38:02;33.40;68.10
29207;DHT22;16247;50.840;4.382;2022-08-11T16:41:01;33.50;68.00
29207;DHT22;16247;50.840;4.382;2022-08-11T16:43:29;33.40;68.50
29207;DHT22;16247;50.840;4.382;2022-08-11T16:46:17;33.40;67.50
29207;DHT22;16247;50.840;4.382;2022-08-11T16:48:45;33.30;67.20
29207;DHT22;16247;50.840;4.382;2022-08-11T16:51:12;33.30;67.30
29207;DHT22;16247;50.840;4.382;2022-08-11T16:53:39;33.30;67.60
29207;DHT22;16247;50.840;4.382;2022-08-11T16:56:08;33.40;67.00
29207;DHT22;16247;50.840;4.382;2022-08-11T16:58:36;33.20;67.10
29207;DHT22;16247;50.840;4.382;2022-08-11T17:01:23;33.20;67.00
29207;DHT22;16247;50.840;4.382;2022-08-11T17:03:56;33.30;67.20
29207;DHT22;16247;50.840;4.382;2022-08-11T17:06:44;33.30;66.90
29207;DHT22;16247;50.840;4.382;2022-08-11T17:09:31;33.20;67.00
29207;DHT22;16247;50.840;4.382;2022-08-11T17:12:19;33.10;67.50
29207;DHT22;16247;50.840;4.382;2022-08-11T17:15:10;33.00;67.60
29207;DHT22;16247;50.840;4.382;2022-08-11T17:17:58;33.00;67.30
29207;DHT22;16247;50.840;4.382;2022-08-11T17:20:26;32.90;67.20
29207;DHT22;16247;50.840;4.382;2022-08-11T17:22:53;32.90;67.20
29207;DHT22;16247;50.840;4.382;2022-08-11T17:25:38;32.70;66.70
29207;DHT22;16247;50.840;4.382;2022-08-11T17:28:05;32.70;67.20
29207;DHT22;16247;50.840;4.382;2022-08-11T17:30:32;32.80;67.30
29207;DHT22;16247;50.840;4.382;2022-08-11T17:33:17;32.80;67.40
29207;DHT22;16247;50.840;4.382;2022-08-11T17:36:03;32.80;67.60
29207;DHT22;16247;50.840;4.382;2022-08-11T17:38:29;32.80;67.80
29207;DHT22;16247;50.840;4.382;2022-08-11T17:41:00;32.70;67.60
29207;DHT22;16247;50.840;4.382;2022-08-11T17:43:47;32.50;68.20
29207;DHT22;16247;50.840;4.382;2022-08-11T17:46:34;32.60;68.50
29207;DHT22;16247;50.840;4.382;2022-08-11T17:49:19;32.60;68.80
29207;DHT22;16247;50.840;4.382;2022-08-11T17:51:47;32.60;69.20
29207;DHT22;16247;50.840;4.382;2022-08-11T17:54:34;32.70;69.30
29207;DHT22;16247;50.840;4.382;2022-08-11T17:57:21;32.70;69.00
29207;DHT22;16247;50.840;4.382;2022-08-11T18:00:07;32.60;69.60
29207;DHT22;16247;50.840;4.382;2022-08-11T18:02:34;32.50;69.50
29207;DHT22;16247;50.840;4.382;2022-08-11T18:05:20;32.30;69.80
29207;DHT22;16247;50.840;4.382;2022-08-11T18:07:50;32.40;70.00
29207;DHT22;16247;50.840;4.382;2022-08-11T18:10:38;32.50;69.80
29207;DHT22;16247;50.840;4.382;2022-08-11T18:13:24;32.60;69.80
29207;DHT22;16247;50.840;4.382;2022-08-11T18:16:10;32.70;70.00
29207;DHT22;16247;50.840;4.382;2022-08-11T18:18:55;32.80;70.10
29207;DHT22;16247;50.840;4.382;2022-08-11T18:21:44;32.90;70.10
29207;DHT22;16247;50.840;4.382;2022-08-11T18:24:34;32.90;70.10
29207;DHT22;16247;50.840;4.382;2022-08-11T18:27:21;33.20;70.20
29207;DHT22;16247;50.840;4.382;2022-08-11T18:30:09;33.40;70.70
29207;DHT22;16247;50.840;4.382;2022-08-11T18:32:53;33.40;69.70
29207;DHT22;16247;50.840;4.382;2022-08-11T18:35:42;33.50;69.50
29207;DHT22;16247;50.840;4.382;2022-08-11T18:38:27;33.50;69.50
29207;DHT22;16247;50.840;4.382;2022-08-11T18:41:13;33.30;69.90
29207;DHT22;16247;50.840;4.382;2022-08-11T18:44:02;33.10;69.80
29207;DHT22;16247;50.840;4.382;2022-08-11T18:46:49;32.90;70.30
29207;DHT22;16247;50.840;4.382;2022-08-11T18:49:36;32.60;70.70
29207;DHT22;16247;50.840;4.382;2022-08-11T18:52:21;32.50;71.10
29207;DHT22;16247;50.840;4.382;2022-08-11T18:55:15;32.20;71.60
29207;DHT22;16247;50.840;4.382;2022-08-11T18:58:03;32.10;72.00
29207;DHT22;16247;50.840;4.382;2022-08-11T19:00:49;31.90;72.40
29207;DHT22;16247;50.840;4.382;2022-08-11T19:03:34;31.70;72.90
29207;DHT22;16247;50.840;4.382;2022-08-11T19:06:22;31.70;73.40
29207;DHT22;16247;50.840;4.382;2022-08-11T19:09:11;31.60;73.70
29207;DHT22;16247;50.840;4.382;2022-08-11T19:11:56;31.50;74.10
29207;DHT22;16247;50.840;4.382;2022-08-11T19:14:42;31.10;74.70
29207;DHT22;16247;50.840;4.382;2022-08-11T19:17:29;31.10;75.10
29207;DHT22;16247;50.840;4.382;2022-08-11T19:20:19;31.00;75.40
29207;DHT22;16247;50.840;4.382;2022-08-11T19:23:05;31.00;75.60
29207;DHT22;16247;50.840;4.382;2022-08-11T19:25:55;30.80;76.10
29207;DHT22;16247;50.840;4.382;2022-08-11T19:28:41;30.70;76.40
29207;DHT22;16247;50.840;4.382;2022-08-11T19:31:27;30.60;76.70
29207;DHT22;16247;50.840;4.382;2022-08-11T19:34:16;30.60;77.00
29207;DHT22;16247;50.840;4.382;2022-08-11T19:37:03;30.40;77.40
29207;DHT22;16247;50.840;4.382;2022-08-11T19:39:48;30.30;77.60
29207;DHT22;16247;50.840;4.382;2022-08-11T19:42:34;30.30;78.00
29207;DHT22;16247;50.840;4.382;2022-08-11T19:45:19;30.10;78.40
29207;DHT22;16247;50.840;4.382;2022-08-11T19:48:04;30.10;78.50